Time;durP1;ratioP1;P1;durP2;ratioP2;P2;SDS_P1;SDS_P2;PMS_P1;PMS_P2;Temp;Humidity;BMP_temperature;BMP_pressure;BME280_temperature;BME280_humidity;BME280_pressure;Samples;Min_cycle;Max_cycle;Signal;HPM_P1;HPM_P2
2022/09/06 00:00:16;;;;;;;2.03;1.05;;;26.70;45.60;;;;;;5026637;28;20068;-51
2022/09/06 00:02:43;;;;;;;1.90;1.05;;;26.70;45.70;;;;;;5029103;28;20199;-54
2022/09/06 00:05:11;;;;;;;2.55;0.82;;;26.70;45.70;;;;;;5032752;28;20037;-55
2022/09/06 00:07:36;;;;;;;1.25;0.95;;;26.70;45.80;;;;;;5030311;28;20051;-53
2022/09/06 00:10:02;;;;;;;1.10;0.88;;;26.70;45.80;;;;;;5030430;28;20025;-55
2022/09/06 00:12:29;;;;;;;1.30;0.80;;;26.70;45.80;;;;;;5031051;28;20337;-52
2022/09/06 00:14:55;;;;;;;2.05;0.90;;;26.70;45.80;;;;;;5015914;28;20030;-55
2022/09/06 00:17:20;;;;;;;1.45;0.85;;;26.70;45.80;;;;;;5027435;28;20046;-54
2022/09/06 00:19:47;;;;;;;1.73;0.80;;;26.70;45.90;;;;;;5021447;28;20029;-56
2022/09/06 00:22:12;;;;;;;1.02;0.80;;;26.70;45.90;;;;;;5030365;28;20026;-54
2022/09/06 00:24:38;;;;;;;1.13;0.90;;;26.70;45.90;;;;;;5029624;28;20044;-54
2022/09/06 00:27:05;;;;;;;1.63;0.88;;;26.70;45.90;;;;;;5030471;28;20025;-51
2022/09/06 00:29:32;;;;;;;1.55;0.90;;;26.70;45.90;;;;;;5029842;28;20057;-55
2022/09/06 00:31:58;;;;;;;1.42;0.82;;;26.70;45.90;;;;;;5028035;28;20167;-52
2022/09/06 00:34:24;;;;;;;1.70;1.02;;;26.60;45.90;;;;;;5024639;28;20455;-52
2022/09/06 00:36:50;;;;;;;1.25;0.85;;;26.60;45.90;;;;;;5030225;28;20352;-56
2022/09/06 00:39:15;;;;;;;1.58;0.75;;;26.70;46.00;;;;;;5028450;28;20022;-56
2022/09/06 00:41:42;;;;;;;1.58;1.00;;;26.70;46.10;;;;;;5031099;28;20053;-55
2022/09/06 00:44:07;;;;;;;1.55;0.90;;;26.70;46.10;;;;;;5031396;28;20048;-53
2022/09/06 00:46:37;;;;;;;1.80;1.00;;;26.70;46.10;;;;;;5030805;28;20022;-51
2022/09/06 00:49:11;;;;;;;1.30;0.90;;;26.60;46.00;;;;;;5028700;28;20365;-53
2022/09/06 00:51:38;;;;;;;1.88;0.98;;;26.60;46.10;;;;;;5026200;28;20174;-54
2022/09/06 00:54:06;;;;;;;1.33;0.80;;;26.60;46.10;;;;;;5030267;28;20033;-51
2022/09/06 00:56:35;;;;;;;1.05;0.82;;;26.60;46.10;;;;;;5028467;28;20053;-55
2022/09/06 00:59:01;;;;;;;1.45;0.90;;;26.60;46.20;;;;;;5029626;28;20025;-50
2022/09/06 01:01:27;;;;;;;1.40;0.82;;;26.60;46.20;;;;;;5027406;28;20032;-52
2022/09/06 01:03:53;;;;;;;1.13;0.90;;;26.60;46.30;;;;;;5031088;28;20029;-54
2022/09/06 01:06:19;;;;;;;1.30;0.85;;;26.60;46.40;;;;;;5025359;28;20045;-51
2022/09/06 01:08:59;;;;;;;1.27;1.10;;;26.60;46.40;;;;;;5027352;28;20045;-55
2022/09/06 01:11:37;;;;;;;1.77;1.00;;;26.60;46.40;;;;;;5024514;28;20159;-56
2022/09/06 01:14:24;;;;;;;1.30;0.82;;;26.60;46.50;;;;;;5028412;28;20025;-53
2022/09/06 01:17:09;;;;;;;2.25;0.90;;;26.60;46.60;;;;;;5026953;28;20423;-53
2022/09/06 01:19:35;;;;;;;2.17;1.00;;;26.60;46.70;;;;;;5028974;28;20025;-56
2022/09/06 01:22:34;;;;;;;2.05;0.90;;;26.60;46.80;;;;;;5031271;28;20033;-53
2022/09/06 01:25:18;;;;;;;2.05;0.88;;;26.60;46.80;;;;;;5027711;28;20029;-54
2022/09/06 01:28:05;;;;;;;1.67;1.00;;;26.60;46.90;;;;;;5027169;28;20365;-50
2022/09/06 01:30:36;;;;;;;2.03;1.00;;;26.60;47.00;;;;;;5028402;28;20018;-53
2022/09/06 01:33:21;;;;;;;1.60;0.90;;;26.60;47.10;;;;;;5028489;28;20033;-54
2022/09/06 01:35:56;;;;;;;1.27;0.65;;;26.60;47.30;;;;;;5029799;28;20056;-56
2022/09/06 01:38:22;;;;;;;1.25;0.90;;;26.50;47.30;;;;;;5030869;28;20029;-56
2022/09/06 01:40:47;;;;;;;1.35;1.00;;;26.60;47.60;;;;;;5026627;28;20095;-55
2022/09/06 01:43:26;;;;;;;1.67;1.00;;;26.50;48.30;;;;;;5020173;28;20040;-54
2022/09/06 01:46:23;;;;;;;1.58;0.80;;;26.60;47.90;;;;;;5028969;28;20502;-55
2022/09/06 01:49:06;;;;;;;1.17;0.70;;;26.50;47.90;;;;;;5027896;28;20458;-55
2022/09/06 01:51:52;;;;;;;1.55;0.90;;;26.50;48.00;;;;;;5028938;28;20060;-56
2022/09/06 01:54:39;;;;;;;2.80;0.93;;;26.50;48.00;;;;;;5027504;28;20046;-53
2022/09/06 01:57:12;;;;;;;1.98;0.95;;;26.50;48.10;;;;;;5027038;28;20471;-55
2022/09/06 01:59:44;;;;;;;0.60;0.60;;;26.50;48.10;;;;;;5028607;28;20039;-54
2022/09/06 02:02:29;;;;;;;0.70;0.70;;;26.50;48.30;;;;;;5022882;28;20036;-58
2022/09/06 02:05:12;;;;;;;2.15;0.90;;;26.50;48.30;;;;;;5027013;28;20356;-56
2022/09/06 02:07:39;;;;;;;1.17;0.75;;;26.50;48.40;;;;;;5027240;28;20052;-53
2022/09/06 02:10:17;;;;;;;1.40;0.93;;;26.50;48.50;;;;;;5027716;28;20033;-55
2022/09/06 02:12:46;;;;;;;1.20;0.90;;;26.50;48.60;;;;;;5022215;28;20041;-54
2022/09/06 02:15:22;;;;;;;1.75;1.00;;;26.50;48.70;;;;;;5029940;28;20036;-56
2022/09/06 02:17:58;;;;;;;1.40;0.90;;;26.50;48.80;;;;;;5026795;28;20040;-55
2022/09/06 02:20:29;;;;;;;0.60;0.60;;;26.50;48.90;;;;;;5028522;28;20048;-54
2022/09/06 02:22:58;;;;;;;1.30;0.95;;;26.50;49.00;;;;;;5026110;28;20072;-54
2022/09/06 02:25:31;;;;;;;1.00;0.82;;;26.50;49.00;;;;;;5029959;28;20021;-57
2022/09/06 02:27:58;;;;;;;2.35;0.90;;;26.50;49.10;;;;;;5029090;28;20041;-53
2022/09/06 02:30:24;;;;;;;1.50;0.80;;;26.50;49.20;;;;;;5027749;28;20037;-54
2022/09/06 02:32:57;;;;;;;1.60;1.02;;;26.50;49.40;;;;;;5027851;28;20021;-54
2022/09/06 02:35:23;;;;;;;1.65;1.00;;;26.50;49.40;;;;;;5029063;28;20344;-55
2022/09/06 02:37:49;;;;;;;2.22;1.05;;;26.40;49.30;;;;;;5026328;28;20041;-55
2022/09/06 02:40:15;;;;;;;1.73;1.05;;;26.50;49.70;;;;;;5027625;28;20029;-56
2022/09/06 02:42:41;;;;;;;1.50;0.95;;;26.50;49.80;;;;;;5029393;28;20456;-53
2022/09/06 02:45:08;;;;;;;1.25;0.75;;;26.40;49.90;;;;;;5029757;28;20036;-54
2022/09/06 02:47:34;;;;;;;1.55;0.90;;;26.40;50.00;;;;;;5028662;28;20041;-56
2022/09/06 02:49:59;;;;;;;0.88;0.82;;;26.50;50.10;;;;;;5026270;28;20359;-54
2022/09/06 02:52:26;;;;;;;1.17;0.90;;;26.40;50.20;;;;;;5026667;28;20025;-54
2022/09/06 02:54:51;;;;;;;1.90;0.98;;;26.40;50.20;;;;;;5025426;28;20030;-53
2022/09/06 02:57:18;;;;;;;1.00;0.90;;;26.40;50.30;;;;;;5027254;28;20029;-51
2022/09/06 02:59:44;;;;;;;1.35;0.73;;;26.40;50.30;;;;;;5028886;28;20033;-55
2022/09/06 03:02:11;;;;;;;1.67;0.88;;;26.40;50.40;;;;;;5025997;28;20022;-55
2022/09/06 03:04:36;;;;;;;1.58;1.10;;;26.40;50.50;;;;;;5028158;28;20033;-52
2022/09/06 03:07:02;;;;;;;1.00;0.80;;;26.40;50.50;;;;;;5025759;28;20095;-57
2022/09/06 03:09:28;;;;;;;1.35;0.85;;;26.40;50.60;;;;;;5029208;28;20361;-56
2022/09/06 03:11:54;;;;;;;1.50;0.93;;;26.40;50.60;;;;;;5024668;28;20060;-53
2022/09/06 03:14:20;;;;;;;1.83;1.30;;;26.40;50.60;;;;;;5022060;28;20096;-52
2022/09/06 03:16:45;;;;;;;1.60;1.10;;;26.40;50.70;;;;;;5025875;28;20030;-53
2022/09/06 03:19:11;;;;;;;0.80;0.80;;;26.40;50.70;;;;;;5029120;28;20120;-57
2022/09/06 03:21:37;;;;;;;1.45;0.90;;;26.40;50.70;;;;;;5030654;28;20108;-54
2022/09/06 03:24:03;;;;;;;1.02;0.73;;;26.30;50.70;;;;;;5026712;28;20037;-54
2022/09/06 03:26:29;;;;;;;1.35;0.88;;;26.40;50.80;;;;;;5028353;28;20032;-54
2022/09/06 03:28:55;;;;;;;1.58;0.88;;;26.40;50.80;;;;;;5027575;28;20037;-51
2022/09/06 03:31:21;;;;;;;1.13;0.90;;;26.40;50.90;;;;;;5027650;28;20021;-53
2022/09/06 03:33:47;;;;;;;1.85;0.95;;;26.40;50.90;;;;;;5022857;28;20595;-53
2022/09/06 03:36:14;;;;;;;1.27;0.95;;;26.30;50.80;;;;;;5032113;28;20107;-50
2022/09/06 03:38:40;;;;;;;1.13;0.77;;;26.40;50.90;;;;;;5034582;28;20368;-53
2022/09/06 03:41:06;;;;;;;1.10;0.80;;;26.30;50.90;;;;;;5035494;28;20036;-52
2022/09/06 03:43:32;;;;;;;3.13;1.40;;;26.30;50.90;;;;;;5031899;28;20412;-50
2022/09/06 03:45:58;;;;;;;1.58;1.00;;;26.30;50.90;;;;;;5030938;28;20120;-55
2022/09/06 03:48:27;;;;;;;0.90;0.73;;;26.40;51.00;;;;;;5032274;28;20132;-52
2022/09/06 03:50:55;;;;;;;0.68;0.68;;;26.30;51.00;;;;;;5033024;28;20037;-50
2022/09/06 03:53:22;;;;;;;1.65;1.00;;;26.30;51.10;;;;;;5033377;28;20029;-53
2022/09/06 03:55:51;;;;;;;2.15;1.15;;;26.30;51.10;;;;;;5034519;28;20091;-52
2022/09/06 03:58:18;;;;;;;1.15;0.73;;;26.30;51.10;;;;;;5034131;28;20326;-50
2022/09/06 04:00:44;;;;;;;1.25;0.90;;;26.30;51.20;;;;;;5026923;28;20029;-51
2022/09/06 04:03:10;;;;;;;1.60;0.90;;;26.30;51.20;;;;;;5026334;28;20061;-53
2022/09/06 04:05:36;;;;;;;1.83;0.95;;;26.30;51.30;;;;;;5029936;28;20123;-54
2022/09/06 04:08:04;;;;;;;1.05;0.95;;;26.30;51.30;;;;;;5032943;28;20163;-51
2022/09/06 04:10:30;;;;;;;1.50;0.82;;;26.30;51.40;;;;;;5033553;28;20046;-54
2022/09/06 04:12:56;;;;;;;1.55;0.90;;;26.30;51.50;;;;;;5031032;28;20422;-51
2022/09/06 04:15:22;;;;;;;1.05;0.80;;;26.30;51.50;;;;;;5031838;28;20167;-55
2022/09/06 04:17:48;;;;;;;1.67;0.80;;;26.30;51.60;;;;;;5033532;28;20021;-54
2022/09/06 04:20:14;;;;;;;1.25;0.90;;;26.30;51.60;;;;;;5033177;28;20026;-50
2022/09/06 04:22:40;;;;;;;1.60;1.23;;;26.30;51.70;;;;;;5032920;28;20493;-50
2022/09/06 04:25:07;;;;;;;1.38;1.10;;;26.30;51.70;;;;;;5031491;28;20029;-51
2022/09/06 04:27:33;;;;;;;1.63;0.93;;;26.30;51.80;;;;;;5016935;28;20452;-51
2022/09/06 04:29:58;;;;;;;1.35;1.00;;;26.30;51.80;;;;;;5035075;28;20033;-51
2022/09/06 04:32:24;;;;;;;1.48;0.85;;;26.30;51.90;;;;;;5034086;28;20021;-52
2022/09/06 04:34:50;;;;;;;1.35;0.95;;;26.30;51.90;;;;;;5032220;28;20494;-50
2022/09/06 04:37:18;;;;;;;1.08;0.90;;;26.30;52.00;;;;;;5034119;28;20045;-56
2022/09/06 04:39:47;;;;;;;1.00;0.90;;;26.30;52.10;;;;;;5034840;28;20112;-53
2022/09/06 04:42:14;;;;;;;1.63;1.40;;;26.30;51.90;;;;;;5033060;28;20044;-55
2022/09/06 04:44:40;;;;;;;2.55;1.00;;;26.30;51.90;;;;;;5029448;28;20029;-55
2022/09/06 04:47:13;;;;;;;1.92;1.10;;;26.30;51.90;;;;;;5033531;28;20116;-53
2022/09/06 04:49:40;;;;;;;1.50;1.00;;;26.30;51.80;;;;;;5027940;28;20037;-50
2022/09/06 04:52:06;;;;;;;1.65;1.23;;;26.30;51.80;;;;;;5028378;28;20348;-53
2022/09/06 04:54:32;;;;;;;1.92;0.93;;;26.30;51.70;;;;;;5029180;28;20453;-53
2022/09/06 04:56:58;;;;;;;1.65;1.00;;;26.30;51.70;;;;;;5028878;28;20032;-49
2022/09/06 04:59:24;;;;;;;1.20;0.70;;;26.20;51.60;;;;;;5033135;28;20532;-55
2022/09/06 05:01:49;;;;;;;1.20;1.10;;;26.20;51.50;;;;;;5028007;28;20030;-55
2022/09/06 05:04:15;;;;;;;1.23;0.90;;;26.30;51.60;;;;;;5023069;28;20029;-55
2022/09/06 05:06:42;;;;;;;1.15;0.93;;;26.30;51.60;;;;;;5029357;28;20441;-51
2022/09/06 05:09:08;;;;;;;1.08;0.85;;;26.30;51.60;;;;;;5032767;28;20045;-55
2022/09/06 05:11:34;;;;;;;1.55;0.90;;;26.20;51.50;;;;;;5027411;28;20060;-53
2022/09/06 05:14:00;;;;;;;1.02;0.93;;;26.20;51.50;;;;;;5028672;28;20038;-55
2022/09/06 05:16:26;;;;;;;1.17;0.77;;;26.20;51.50;;;;;;5028599;28;20031;-51
2022/09/06 05:18:51;;;;;;;1.52;1.00;;;26.20;51.50;;;;;;5027970;28;20034;-57
2022/09/06 05:21:17;;;;;;;1.65;1.00;;;26.20;51.50;;;;;;5029177;28;20044;-55
2022/09/06 05:23:43;;;;;;;1.65;0.90;;;26.20;51.50;;;;;;5023387;28;20037;-51
2022/09/06 05:26:09;;;;;;;1.67;1.20;;;26.20;51.50;;;;;;5025306;28;20034;-52
2022/09/06 05:28:35;;;;;;;1.63;1.13;;;26.20;51.60;;;;;;5028282;28;20444;-55
2022/09/06 05:31:22;;;;;;;1.17;1.05;;;26.20;51.70;;;;;;5012082;28;20343;-53
2022/09/06 05:33:48;;;;;;;1.85;1.20;;;26.20;51.70;;;;;;5029568;28;20029;-54
2022/09/06 05:36:13;;;;;;;2.00;1.00;;;26.20;51.80;;;;;;5027613;28;20026;-55
2022/09/06 05:38:39;;;;;;;1.55;0.80;;;26.20;51.90;;;;;;5029170;28;20564;-54
2022/09/06 05:41:05;;;;;;;1.45;0.98;;;26.20;52.00;;;;;;5028120;28;20025;-53
2022/09/06 05:43:31;;;;;;;1.25;0.90;;;26.20;52.00;;;;;;5027872;28;20022;-54
2022/09/06 05:45:56;;;;;;;1.10;0.93;;;26.20;52.00;;;;;;5028737;28;20341;-54
2022/09/06 05:48:22;;;;;;;1.58;1.08;;;26.20;52.00;;;;;;5026149;28;20050;-50
2022/09/06 05:51:01;;;;;;;1.00;0.90;;;26.20;52.00;;;;;;5026890;28;20108;-52
2022/09/06 05:53:35;;;;;;;1.63;1.15;;;26.20;52.00;;;;;;5028412;28;20036;-53
2022/09/06 05:56:01;;;;;;;;;;;26.20;52.00;;;;;;5030296;28;20045;-55
2022/09/06 05:58:27;;;;;;;2.58;1.60;;;26.20;51.90;;;;;;5030617;28;19966;-53
2022/09/06 06:01:15;;;;;;;2.70;1.20;;;26.20;51.90;;;;;;5025551;28;20033;-54
2022/09/06 06:03:42;;;;;;;1.92;1.30;;;26.20;51.90;;;;;;5029540;28;20361;-55
2022/09/06 06:06:08;;;;;;;1.80;1.33;;;26.20;51.90;;;;;;5026428;28;20116;-57
2022/09/06 06:08:35;;;;;;;1.10;0.98;;;26.20;51.80;;;;;;5025900;28;20037;-53
2022/09/06 06:11:01;;;;;;;1.98;1.20;;;26.20;51.80;;;;;;5027171;28;20049;-54
2022/09/06 06:13:33;;;;;;;2.42;1.30;;;26.20;51.80;;;;;;5028637;28;20029;-53
2022/09/06 06:16:01;;;;;;;1.67;1.30;;;26.20;51.80;;;;;;5029405;28;20026;-52
2022/09/06 06:18:27;;;;;;;1.55;1.00;;;26.20;51.80;;;;;;5028666;28;20033;-54
2022/09/06 06:21:15;;;;;;;4.07;1.77;;;26.20;51.80;;;;;;5027683;28;20033;-55
2022/09/06 06:23:43;;;;;;;2.80;1.35;;;26.20;51.70;;;;;;5024311;28;20083;-55
2022/09/06 06:26:10;;;;;;;2.25;1.58;;;26.20;51.70;;;;;;5028184;28;20112;-54
2022/09/06 06:28:39;;;;;;;2.53;1.60;;;26.20;51.70;;;;;;5025671;28;20369;-51
2022/09/06 06:31:06;;;;;;;2.70;1.48;;;26.20;51.70;;;;;;5025551;28;20044;-51
2022/09/06 06:33:33;;;;;;;1.45;1.23;;;26.20;51.70;;;;;;5017116;28;20032;-54
2022/09/06 06:36:12;;;;;;;2.13;1.30;;;26.20;51.70;;;;;;5026252;28;20021;-54
2022/09/06 06:38:43;;;;;;;2.75;1.48;;;26.20;51.70;;;;;;5024376;28;20036;-52
2022/09/06 06:41:11;;;;;;;6.15;1.08;;;26.20;51.70;;;;;;5021373;28;20040;-55
2022/09/06 06:43:37;;;;;;;1.45;1.23;;;26.20;51.70;;;;;;5025128;28;20120;-56
2022/09/06 06:46:08;;;;;;;2.70;1.27;;;26.20;51.70;;;;;;5023519;28;20033;-57
2022/09/06 06:48:35;;;;;;;4.25;1.33;;;26.20;51.70;;;;;;5028667;28;20045;-55
2022/09/06 06:51:01;;;;;;;2.42;1.30;;;26.20;51.70;;;;;;5026118;28;20040;-58
2022/09/06 06:53:28;;;;;;;2.72;1.60;;;26.20;51.70;;;;;;5023061;28;20467;-56
2022/09/06 06:55:54;;;;;;;1.75;1.10;;;26.20;51.70;;;;;;5027349;28;20436;-57
2022/09/06 06:58:20;;;;;;;1.88;1.08;;;26.20;51.70;;;;;;5025438;28;20095;-52
2022/09/06 07:00:46;;;;;;;2.35;1.50;;;26.20;51.70;;;;;;5024528;28;20460;-56
2022/09/06 07:03:12;;;;;;;2.78;1.25;;;26.20;51.70;;;;;;5023206;28;20344;-55
2022/09/06 07:05:42;;;;;;;1.95;1.20;;;26.20;51.70;;;;;;5021018;28;20041;-54
2022/09/06 07:08:08;;;;;;;2.28;1.40;;;26.20;51.70;;;;;;5027205;28;20036;-57
2022/09/06 07:10:34;;;;;;;2.95;1.13;;;26.20;51.70;;;;;;5023717;28;20385;-55
2022/09/06 07:13:01;;;;;;;3.53;1.27;;;26.20;51.70;;;;;;5018707;28;20030;-59
2022/09/06 07:15:26;;;;;;;2.40;1.17;;;26.20;51.80;;;;;;5026605;28;20029;-52
2022/09/06 07:18:01;;;;;;;2.40;1.00;;;26.20;51.80;;;;;;5025200;28;20125;-56
2022/09/06 07:20:26;;;;;;;2.08;1.40;;;26.20;51.80;;;;;;5015230;28;20457;-56
2022/09/06 07:23:00;;;;;;;1.80;1.20;;;26.20;51.80;;;;;;5022975;28;20032;-55
2022/09/06 07:25:26;;;;;;;1.73;1.20;;;26.20;51.80;;;;;;5027219;28;20053;-57
2022/09/06 07:28:00;;;;;;;1.35;1.00;;;26.20;51.80;;;;;;5022873;28;20127;-53
2022/09/06 07:30:36;;;;;;;1.90;1.23;;;26.20;51.80;;;;;;5025004;28;20559;-55
2022/09/06 07:33:04;;;;;;;1.17;1.02;;;26.20;51.80;;;;;;5024131;28;20025;-56
2022/09/06 07:35:30;;;;;;;1.70;1.10;;;26.20;51.70;;;;;;5021248;28;20471;-54
2022/09/06 07:37:59;;;;;;;1.83;1.05;;;26.20;51.70;;;;;;5024334;28;20033;-52
2022/09/06 07:40:26;;;;;;;2.00;1.30;;;26.20;51.70;;;;;;5020169;28;20175;-53
2022/09/06 07:43:00;;;;;;;1.63;1.10;;;26.20;51.60;;;;;;5021182;28;20029;-55
2022/09/06 07:45:26;;;;;;;1.35;1.05;;;26.20;52.20;;;;;;5025214;28;20069;-56
2022/09/06 07:47:59;;;;;;;1.77;1.10;;;26.20;51.50;;;;;;5022460;28;20473;-54
2022/09/06 07:50:30;;;;;;;2.00;1.30;;;26.20;51.40;;;;;;5022585;28;20029;-56
2022/09/06 07:53:04;;;;;;;1.60;1.13;;;26.20;51.40;;;;;;5019195;28;20108;-56
2022/09/06 07:55:29;;;;;;;1.52;1.20;;;26.20;51.30;;;;;;5025944;28;20112;-56
2022/09/06 07:57:55;;;;;;;1.40;1.10;;;26.20;51.40;;;;;;5025458;28;20171;-52
2022/09/06 08:00:21;;;;;;;1.08;0.98;;;26.20;51.30;;;;;;5017691;28;20032;-56
2022/09/06 08:02:47;;;;;;;1.50;0.90;;;26.20;51.30;;;;;;5025492;28;20034;-55
2022/09/06 08:05:12;;;;;;;3.65;1.15;;;26.20;51.20;;;;;;5018439;28;20026;-56
2022/09/06 08:07:38;;;;;;;1.38;1.02;;;26.30;51.10;;;;;;5034402;28;20077;-54
2022/09/06 08:10:04;;;;;;;2.47;1.23;;;26.30;51.10;;;;;;5026370;28;20037;-50
2022/09/06 08:12:30;;;;;;;2.10;1.35;;;26.30;51.00;;;;;;5021167;28;20326;-55
2022/09/06 08:14:56;;;;;;;1.92;1.00;;;26.30;50.90;;;;;;5021917;28;20048;-57
2022/09/06 08:17:22;;;;;;;1.60;1.15;;;26.30;50.80;;;;;;5020911;28;20057;-55
2022/09/06 08:19:48;;;;;;;2.92;1.20;;;26.30;50.70;;;;;;5019516;28;20124;-56
2022/09/06 08:22:17;;;;;;;1.77;0.93;;;26.30;50.70;;;;;;5031460;28;20033;-55
2022/09/06 08:24:44;;;;;;;1.30;1.08;;;26.30;50.60;;;;;;5039689;28;20048;-56
2022/09/06 08:27:10;;;;;;;1.40;1.23;;;26.30;50.60;;;;;;5025756;28;20113;-53
2022/09/06 08:29:36;;;;;;;1.30;1.00;;;26.30;50.50;;;;;;5023407;28;20045;-54
2022/09/06 08:32:02;;;;;;;1.95;0.93;;;26.30;50.40;;;;;;5024814;28;20029;-55
2022/09/06 08:34:28;;;;;;;1.92;1.05;;;26.40;50.40;;;;;;5025906;28;20033;-54
2022/09/06 08:36:54;;;;;;;2.15;1.10;;;26.40;50.40;;;;;;5027890;28;20041;-54
2022/09/06 08:39:19;;;;;;;1.38;1.05;;;26.40;50.30;;;;;;5027737;28;20043;-52
2022/09/06 08:41:56;;;;;;;2.38;1.10;;;26.40;50.30;;;;;;5028713;28;20034;-54
2022/09/06 08:44:46;;;;;;;1.52;1.00;;;26.40;50.20;;;;;;5027694;28;20044;-52
2022/09/06 08:47:14;;;;;;;2.05;1.00;;;26.30;50.10;;;;;;5026654;28;20429;-55
2022/09/06 08:49:44;;;;;;;1.30;1.02;;;26.30;50.10;;;;;;5024996;28;20365;-55
2022/09/06 08:52:32;;;;;;;1.42;1.00;;;26.40;50.10;;;;;;5025389;28;20035;-52
2022/09/06 08:55:01;;;;;;;1.75;1.27;;;26.40;50.00;;;;;;5026180;28;20024;-51
2022/09/06 08:57:26;;;;;;;2.33;1.30;;;26.40;50.00;;;;;;5025528;28;20096;-52
2022/09/06 08:59:58;;;;;;;1.52;1.00;;;26.40;50.00;;;;;;5026883;28;20025;-54
2022/09/06 09:02:24;;;;;;;1.02;0.90;;;26.30;49.80;;;;;;5024944;28;20353;-55
2022/09/06 09:05:00;;;;;;;1.17;1.05;;;26.30;49.90;;;;;;5025071;28;20021;-56
2022/09/06 09:08:04;;;;;;;2.13;1.30;;;26.30;49.80;;;;;;5020432;28;20474;-54
2022/09/06 09:10:45;;;;;;;2.37;1.00;;;26.40;50.00;;;;;;4984369;28;20049;-56
2022/09/06 09:13:32;;;;;;;2.15;1.00;;;26.40;50.20;;;;;;5017520;28;20763;-55
2022/09/06 09:15:58;;;;;;;2.65;1.27;;;26.40;50.30;;;;;;5010667;28;20069;-59
2022/09/06 09:18:31;;;;;;;1.83;1.10;;;26.40;50.40;;;;;;5023679;28;20176;-59
2022/09/06 09:20:57;;;;;;;2.90;1.50;;;26.40;50.40;;;;;;5025477;28;20029;-58
2022/09/06 09:23:26;;;;;;;2.80;1.20;;;26.40;50.60;;;;;;5024528;28;20272;-55
2022/09/06 09:25:55;;;;;;;1.85;1.10;;;26.40;50.70;;;;;;5025671;28;20045;-55
2022/09/06 09:28:23;;;;;;;1.17;0.90;;;26.40;50.70;;;;;;5023480;28;20116;-54
2022/09/06 09:30:51;;;;;;;1.13;1.00;;;26.40;50.90;;;;;;5024551;28;20021;-56
2022/09/06 09:33:31;;;;;;;2.38;1.17;;;26.50;51.20;;;;;;5022595;28;20029;-60
2022/09/06 09:36:00;;;;;;;5.70;1.17;;;26.50;51.40;;;;;;5021580;28;20087;-55
2022/09/06 09:38:29;;;;;;;0.88;0.80;;;26.50;51.50;;;;;;5024727;28;20018;-58
2022/09/06 09:40:58;;;;;;;2.92;1.25;;;26.50;51.50;;;;;;5018962;28;20057;-60
2022/09/06 09:43:30;;;;;;;2.30;1.17;;;26.50;51.50;;;;;;5021520;28;20041;-54
2022/09/06 09:46:38;;;;;;;1.75;1.08;;;26.50;51.50;;;;;;5027666;28;20365;-52
2022/09/06 09:49:20;;;;;;;2.40;1.08;;;26.50;51.40;;;;;;5017792;28;20553;-51
2022/09/06 09:52:10;;;;;;;3.08;1.30;;;26.50;51.30;;;;;;5020858;28;20086;-54
2022/09/06 09:54:43;;;;;;;1.27;1.17;;;26.60;51.40;;;;;;5023667;28;20343;-50
2022/09/06 09:57:13;;;;;;;2.67;1.30;;;26.60;51.30;;;;;;5025702;28;20025;-51
2022/09/06 09:59:46;;;;;;;0.80;0.80;;;26.60;51.20;;;;;;5022800;28;20033;-54
2022/09/06 10:02:20;;;;;;;1.90;1.17;;;26.60;51.10;;;;;;5018836;28;20444;-53
2022/09/06 10:04:49;;;;;;;4.43;1.10;;;26.60;50.90;;;;;;5024955;28;20041;-50
2022/09/06 10:07:21;;;;;;;2.45;1.17;;;26.60;50.70;;;;;;5022484;28;20461;-51
2022/09/06 10:10:00;;;;;;;1.60;1.00;;;26.60;50.50;;;;;;5021369;28;20034;-53
2022/09/06 10:12:30;;;;;;;0.98;0.77;;;26.60;50.40;;;;;;5026116;28;20033;-53
2022/09/06 10:14:56;;;;;;;1.55;0.93;;;26.60;50.20;;;;;;5021605;28;20525;-51
2022/09/06 10:17:34;;;;;;;1.42;1.02;;;26.60;50.00;;;;;;5018120;28;20453;-51
2022/09/06 10:20:07;;;;;;;1.23;1.00;;;26.60;49.90;;;;;;5020799;28;20360;-51
2022/09/06 10:23:06;;;;;;;1.45;0.98;;;26.60;49.70;;;;;;5017786;28;20100;-53
2022/09/06 10:25:37;;;;;;;1.02;0.82;;;26.60;49.50;;;;;;5017060;28;20021;-58
2022/09/06 10:28:30;;;;;;;1.52;0.80;;;26.60;49.50;;;;;;5021980;28;20044;-61
2022/09/06 10:31:21;;;;;;;1.30;0.85;;;26.60;49.50;;;;;;5020516;28;20076;-60
2022/09/06 10:34:19;;;;;;;4.20;1.10;;;26.70;49.30;;;;;;5022517;28;20114;-59
2022/09/06 10:37:08;;;;;;;1.67;0.70;;;26.70;49.20;;;;;;4984140;28;20479;-58
2022/09/06 10:39:59;;;;;;;2.25;0.90;;;26.80;49.00;;;;;;5023574;28;20121;-51
2022/09/06 10:42:28;;;;;;;2.70;0.80;;;26.90;48.80;;;;;;5020668;28;20038;-62
2022/09/06 10:45:24;;;;;;;7.15;0.90;;;27.10;48.70;;;;;;5020436;28;20034;-59
2022/09/06 10:48:08;;;;;;;5.82;1.30;;;27.20;48.60;;;;;;5021311;28;20034;-64
2022/09/06 10:50:37;;;;;;;4.65;1.20;;;27.40;48.40;;;;;;5022834;28;20049;-60
2022/09/06 10:53:12;;;;;;;12.07;1.10;;;27.50;48.40;;;;;;5021585;28;20025;-60
2022/09/06 10:55:40;;;;;;;2.47;0.95;;;27.60;48.30;;;;;;5022156;28;20029;-57
2022/09/06 10:58:10;;;;;;;5.32;1.00;;;27.80;48.20;;;;;;5025686;28;20036;-53
2022/09/06 11:00:47;;;;;;;6.32;0.98;;;27.90;48.20;;;;;;5018185;28;20499;-55
2022/09/06 11:03:19;;;;;;;2.20;0.70;;;28.10;48.10;;;;;;5020936;28;20049;-57
2022/09/06 11:06:00;;;;;;;2.60;0.90;;;28.20;48.00;;;;;;5021700;28;20083;-55
2022/09/06 11:08:51;;;;;;;4.15;1.05;;;28.30;47.80;;;;;;5019941;28;20041;-57
2022/09/06 11:11:36;;;;;;;6.03;1.00;;;28.30;47.60;;;;;;5020236;28;20438;-56
2022/09/06 11:14:09;;;;;;;10.20;1.48;;;28.50;47.50;;;;;;5022824;28;20100;-52
2022/09/06 11:16:43;;;;;;;4.22;1.00;;;28.50;47.30;;;;;;5021175;28;20022;-51
2022/09/06 11:19:21;;;;;;;3.85;1.20;;;28.60;47.10;;;;;;5021443;28;20075;-53
2022/09/06 11:22:00;;;;;;;1.67;0.80;;;28.70;47.00;;;;;;5016228;28;20029;-56
2022/09/06 11:24:26;;;;;;;2.58;0.75;;;28.80;46.80;;;;;;5021383;28;20040;-55
2022/09/06 11:27:34;;;;;;;3.42;0.80;;;28.80;46.60;;;;;;5016924;28;20029;-58
2022/09/06 11:30:02;;;;;;;3.85;1.02;;;28.90;46.40;;;;;;5012249;28;20041;-55
2022/09/06 11:32:36;;;;;;;1.65;0.90;;;28.90;46.10;;;;;;5017490;28;20112;-58
2022/09/06 11:35:08;;;;;;;6.60;1.42;;;29.00;46.10;;;;;;5026057;28;20478;-58
2022/09/06 11:37:43;;;;;;;5.35;1.50;;;29.00;46.10;;;;;;5018213;28;20033;-56
2022/09/06 11:40:25;;;;;;;6.88;1.17;;;29.10;46.00;;;;;;5021239;28;20026;-51
2022/09/06 11:42:51;;;;;;;3.25;1.42;;;29.10;45.70;;;;;;5021173;28;20446;-57
2022/09/06 11:45:49;;;;;;;7.22;1.58;;;29.10;45.50;;;;;;5018157;28;20040;-56
2022/09/06 11:48:28;;;;;;;6.35;1.35;;;29.20;45.00;;;;;;5023925;28;20479;-52
2022/09/06 11:50:59;;;;;;;2.58;1.30;;;29.20;44.70;;;;;;5021569;28;20076;-58
2022/09/06 11:53:32;;;;;;;6.97;1.50;;;29.20;44.30;;;;;;5017302;28;20323;-55
2022/09/06 11:56:02;;;;;;;3.50;1.50;;;29.30;44.00;;;;;;5026610;28;20382;-55
2022/09/06 11:59:09;;;;;;;3.95;1.23;;;29.20;43.50;;;;;;5022639;28;20041;-58
2022/09/06 12:01:36;;;;;;;2.53;1.30;;;29.30;43.10;;;;;;5015558;28;20379;-58
2022/09/06 12:04:04;;;;;;;4.70;1.48;;;29.20;42.80;;;;;;5023225;28;20416;-61
2022/09/06 12:07:06;;;;;;;3.85;1.40;;;29.30;42.30;;;;;;5023895;28;20353;-59
2022/09/06 12:09:33;;;;;;;3.70;1.15;;;29.30;41.90;;;;;;5026315;28;20046;-59
2022/09/06 12:12:01;;;;;;;5.25;1.73;;;29.30;41.70;;;;;;5023686;28;20409;-53
2022/09/06 12:14:39;;;;;;;3.65;1.30;;;29.20;41.00;;;;;;5021243;28;20053;-56
2022/09/06 12:17:07;;;;;;;4.90;1.60;;;29.20;40.60;;;;;;5022865;28;20029;-59
2022/09/06 12:19:48;;;;;;;4.18;1.30;;;29.20;40.40;;;;;;5024490;28;20112;-60
2022/09/06 12:22:28;;;;;;;5.25;1.30;;;29.20;40.00;;;;;;5030232;28;22161;-56
2022/09/06 12:24:58;;;;;;;3.83;1.02;;;29.20;39.70;;;;;;5025391;28;20068;-55
2022/09/06 12:27:28;;;;;;;2.05;1.10;;;29.10;39.50;;;;;;5020123;28;20038;-58
2022/09/06 12:30:06;;;;;;;3.10;1.20;;;29.10;39.30;;;;;;5027411;28;20037;-55
2022/09/06 12:32:48;;;;;;;18.42;1.75;;;29.00;39.00;;;;;;5025991;28;20021;-54
2022/09/06 12:35:19;;;;;;;3.38;1.30;;;29.00;38.80;;;;;;5027349;28;20083;-54
2022/09/06 12:38:06;;;;;;;2.38;1.08;;;28.90;38.90;;;;;;5023910;28;20066;-53
2022/09/06 12:40:37;;;;;;;3.88;1.30;;;28.90;39.10;;;;;;5027495;28;20105;-51
2022/09/06 12:43:04;;;;;;;7.53;1.23;;;28.90;39.30;;;;;;5028800;28;20119;-56
2022/09/06 12:45:30;;;;;;;6.97;1.40;;;28.90;39.20;;;;;;5028027;28;20116;-52
2022/09/06 12:48:08;;;;;;;4.35;1.15;;;28.80;39.00;;;;;;5028348;28;20048;-52
2022/09/06 12:50:34;;;;;;;3.83;1.20;;;28.80;39.00;;;;;;5028506;28;20041;-55
2022/09/06 12:53:03;;;;;;;3.15;0.80;;;28.70;39.00;;;;;;5030219;28;20361;-55
2022/09/06 12:55:35;;;;;;;2.67;1.10;;;28.70;39.40;;;;;;5030131;28;20333;-55
2022/09/06 12:58:04;;;;;;;4.30;1.05;;;28.60;39.60;;;;;;5029566;28;20029;-64
2022/09/06 13:00:40;;;;;;;3.38;0.85;;;28.60;39.50;;;;;;5029473;28;20498;-63
2022/09/06 13:03:23;;;;;;;1.65;1.08;;;28.60;39.70;;;;;;5019847;28;20088;-55
2022/09/06 13:05:50;;;;;;;4.20;0.90;;;28.60;39.70;;;;;;5022404;28;20139;-58
2022/09/06 13:08:40;;;;;;;2.15;1.23;;;28.50;39.00;;;;;;5029887;28;20084;-56